sensor_id;sensor_type;location;lat;lon;timestamp;pressure;altitude;pressure_sealevel;temperature;humidity
55733;BME280;41637;52.364;9.910;2023-02-01T00:00:27;100764.64;;;5.03;78.54
55733;BME280;41637;52.364;9.910;2023-02-01T00:02:54;100749.75;;;5.03;78.64
55733;BME280;41637;52.364;9.910;2023-02-01T00:05:21;100753.42;;;5.03;78.60
55733;BME280;41637;52.364;9.910;2023-02-01T00:07:48;100751.76;;;5.02;78.54
55733;BME280;41637;52.364;9.910;2023-02-01T00:10:15;100751.16;;;5.03;78.79
55733;BME280;41637;52.364;9.910;2023-02-01T00:12:43;100758.71;;;5.01;78.88
55733;BME280;41637;52.364;9.910;2023-02-01T00:15:09;100758.33;;;4.99;78.60
55733;BME280;41637;52.364;9.910;2023-02-01T00:17:37;100752.52;;;4.99;78.80
55733;BME280;41637;52.364;9.910;2023-02-01T00:20:04;100746.81;;;4.95;79.07
55733;BME280;41637;52.364;9.910;2023-02-01T00:22:31;100751.55;;;4.95;78.64
55733;BME280;41637;52.364;9.910;2023-02-01T00:24:58;100742.08;;;4.96;78.80
55733;BME280;41637;52.364;9.910;2023-02-01T00:27:25;100736.10;;;4.95;78.84
55733;BME280;41637;52.364;9.910;2023-02-01T00:29:54;100731.79;;;4.94;78.81
55733;BME280;41637;52.364;9.910;2023-02-01T00:32:21;100736.08;;;4.93;78.93
55733;BME280;41637;52.364;9.910;2023-02-01T00:34:48;100742.19;;;4.91;78.99
55733;BME280;41637;52.364;9.910;2023-02-01T00:37:14;100738.09;;;4.92;78.74
55733;BME280;41637;52.364;9.910;2023-02-01T00:39:42;100735.13;;;4.94;78.56
55733;BME280;41637;52.364;9.910;2023-02-01T00:42:09;100740.84;;;4.91;78.66
55733;BME280;41637;52.364;9.910;2023-02-01T00:44:36;100728.19;;;4.91;78.86
55733;BME280;41637;52.364;9.910;2023-02-01T00:47:03;100739.89;;;4.92;78.93
55733;BME280;41637;52.364;9.910;2023-02-01T00:49:30;100748.33;;;4.87;78.93
55733;BME280;41637;52.364;9.910;2023-02-01T00:51:57;100738.19;;;4.86;79.07
55733;BME280;41637;52.364;9.910;2023-02-01T00:54:23;100736.83;;;4.88;79.13
55733;BME280;41637;52.364;9.910;2023-02-01T00:56:50;100736.05;;;4.87;79.26
55733;BME280;41637;52.364;9.910;2023-02-01T00:59:17;100728.17;;;4.87;79.27
55733;BME280;41637;52.364;9.910;2023-02-01T01:01:44;100725.29;;;4.88;79.28
55733;BME280;41637;52.364;9.910;2023-02-01T01:04:11;100726.43;;;4.87;79.21
55733;BME280;41637;52.364;9.910;2023-02-01T01:06:38;100722.03;;;4.85;79.07
55733;BME280;41637;52.364;9.910;2023-02-01T01:09:07;100713.88;;;4.86;79.20
55733;BME280;41637;52.364;9.910;2023-02-01T01:11:36;100716.25;;;4.87;79.39
55733;BME280;41637;52.364;9.910;2023-02-01T01:14:05;100720.67;;;4.83;79.51
55733;BME280;41637;52.364;9.910;2023-02-01T01:16:33;100719.50;;;4.78;79.47
55733;BME280;41637;52.364;9.910;2023-02-01T01:19:01;100722.92;;;4.77;79.62
55733;BME280;41637;52.364;9.910;2023-02-01T01:21:29;100721.98;;;4.76;79.72
55733;BME280;41637;52.364;9.910;2023-02-01T01:23:56;100728.66;;;4.76;79.77
55733;BME280;41637;52.364;9.910;2023-02-01T01:26:25;100730.86;;;4.71;79.61
55733;BME280;41637;52.364;9.910;2023-02-01T01:28:54;100730.55;;;4.80;79.50
55733;BME280;41637;52.364;9.910;2023-02-01T01:31:21;100714.34;;;4.83;79.50
55733;BME280;41637;52.364;9.910;2023-02-01T01:33:53;100714.28;;;4.85;79.41
55733;BME280;41637;52.364;9.910;2023-02-01T01:36:21;100712.95;;;4.89;79.30
55733;BME280;41637;52.364;9.910;2023-02-01T01:38:48;100715.73;;;4.89;78.95
55733;BME280;41637;52.364;9.910;2023-02-01T01:41:17;100706.43;;;4.91;78.99
55733;BME280;41637;52.364;9.910;2023-02-01T01:43:56;100708.18;;;4.91;78.95
55733;BME280;41637;52.364;9.910;2023-02-01T01:46:28;100706.30;;;4.93;79.14
55733;BME280;41637;52.364;9.910;2023-02-01T01:49:08;100704.41;;;4.88;79.22
55733;BME280;41637;52.364;9.910;2023-02-01T01:51:40;100705.30;;;4.88;78.92
55733;BME280;41637;52.364;9.910;2023-02-01T01:54:14;100712.20;;;4.90;78.93
55733;BME280;41637;52.364;9.910;2023-02-01T01:56:46;100699.23;;;4.87;78.92
55733;BME280;41637;52.364;9.910;2023-02-01T01:59:15;100698.02;;;4.87;78.80
55733;BME280;41637;52.364;9.910;2023-02-01T02:01:43;100691.34;;;4.86;78.92
55733;BME280;41637;52.364;9.910;2023-02-01T02:04:10;100693.59;;;4.84;78.95
55733;BME280;41637;52.364;9.910;2023-02-01T02:06:41;100689.98;;;4.87;78.78
55733;BME280;41637;52.364;9.910;2023-02-01T02:09:11;100686.45;;;4.89;79.11
55733;BME280;41637;52.364;9.910;2023-02-01T02:11:38;100684.14;;;4.88;78.98
55733;BME280;41637;52.364;9.910;2023-02-01T02:14:08;100694.48;;;4.88;78.92
55733;BME280;41637;52.364;9.910;2023-02-01T02:19:38;100680.61;;;4.84;79.24
55733;BME280;41637;52.364;9.910;2023-02-01T02:31:52;100668.32;;;4.84;79.16
55733;BME280;41637;52.364;9.910;2023-02-01T02:42:24;100647.16;;;4.87;78.96
55733;BME280;41637;52.364;9.910;2023-02-01T02:45:26;100650.85;;;4.87;79.04
55733;BME280;41637;52.364;9.910;2023-02-01T02:48:30;100653.23;;;4.86;79.33
55733;BME280;41637;52.364;9.910;2023-02-01T02:51:09;100640.48;;;4.84;79.27
55733;BME280;41637;52.364;9.910;2023-02-01T02:54:24;100635.55;;;4.84;79.27
55733;BME280;41637;52.364;9.910;2023-02-01T02:57:10;100638.70;;;4.84;79.49
55733;BME280;41637;52.364;9.910;2023-02-01T02:59:58;100625.15;;;4.85;79.73
55733;BME280;41637;52.364;9.910;2023-02-01T03:02:47;100622.30;;;4.84;79.52
55733;BME280;41637;52.364;9.910;2023-02-01T03:05:35;100620.58;;;4.85;79.65
55733;BME280;41637;52.364;9.910;2023-02-01T03:08:11;100617.54;;;4.86;79.61
55733;BME280;41637;52.364;9.910;2023-02-01T03:10:47;100614.71;;;4.88;79.81
55733;BME280;41637;52.364;9.910;2023-02-01T03:18:48;100609.21;;;4.85;79.86
55733;BME280;41637;52.364;9.910;2023-02-01T03:21:23;100616.95;;;4.84;79.71
55733;BME280;41637;52.364;9.910;2023-02-01T03:23:51;100599.38;;;4.85;79.82
55733;BME280;41637;52.364;9.910;2023-02-01T03:26:20;100602.90;;;4.85;79.94
55733;BME280;41637;52.364;9.910;2023-02-01T03:28:54;100594.95;;;4.85;79.81
55733;BME280;41637;52.364;9.910;2023-02-01T03:31:23;100595.77;;;4.86;79.86
55733;BME280;41637;52.364;9.910;2023-02-01T03:33:50;100580.99;;;4.87;79.97
55733;BME280;41637;52.364;9.910;2023-02-01T03:36:26;100586.39;;;4.85;79.82
55733;BME280;41637;52.364;9.910;2023-02-01T03:39:21;100585.73;;;4.86;79.75
55733;BME280;41637;52.364;9.910;2023-02-01T03:41:53;100587.72;;;4.86;79.80
55733;BME280;41637;52.364;9.910;2023-02-01T03:44:26;100582.75;;;4.87;79.76
55733;BME280;41637;52.364;9.910;2023-02-01T03:47:10;100564.88;;;4.89;80.08
55733;BME280;41637;52.364;9.910;2023-02-01T03:49:41;100568.76;;;4.88;80.13
55733;BME280;41637;52.364;9.910;2023-02-01T03:52:13;100571.10;;;4.90;80.21
55733;BME280;41637;52.364;9.910;2023-02-01T03:54:42;100557.23;;;4.90;80.45
55733;BME280;41637;52.364;9.910;2023-02-01T03:57:13;100562.16;;;4.90;80.62
55733;BME280;41637;52.364;9.910;2023-02-01T03:59:42;100553.64;;;4.89;80.88
55733;BME280;41637;52.364;9.910;2023-02-01T04:02:10;100557.46;;;4.89;80.70
55733;BME280;41637;52.364;9.910;2023-02-01T04:04:38;100548.04;;;4.91;80.84
55733;BME280;41637;52.364;9.910;2023-02-01T04:07:04;100534.46;;;4.92;81.00
55733;BME280;41637;52.364;9.910;2023-02-01T04:09:31;100537.09;;;4.94;81.06
55733;BME280;41637;52.364;9.910;2023-02-01T04:11:58;100529.40;;;4.94;80.94
55733;BME280;41637;52.364;9.910;2023-02-01T04:14:25;100522.26;;;4.97;81.01
55733;BME280;41637;52.364;9.910;2023-02-01T04:16:52;100527.45;;;4.98;81.13
55733;BME280;41637;52.364;9.910;2023-02-01T04:19:19;100523.48;;;4.95;81.24
55733;BME280;41637;52.364;9.910;2023-02-01T04:21:46;100527.17;;;4.97;81.46
55733;BME280;41637;52.364;9.910;2023-02-01T04:24:13;100539.88;;;4.98;81.43
55733;BME280;41637;52.364;9.910;2023-02-01T04:26:39;100538.83;;;4.98;81.30
55733;BME280;41637;52.364;9.910;2023-02-01T04:29:08;100523.59;;;5.01;81.54
55733;BME280;41637;52.364;9.910;2023-02-01T04:31:35;100525.85;;;5.00;81.97
55733;BME280;41637;52.364;9.910;2023-02-01T04:34:03;100518.64;;;4.98;82.67
55733;BME280;41637;52.364;9.910;2023-02-01T04:36:30;100508.67;;;4.94;82.75
55733;BME280;41637;52.364;9.910;2023-02-01T04:38:57;100507.02;;;4.89;83.20
55733;BME280;41637;52.364;9.910;2023-02-01T04:41:24;100502.49;;;4.87;83.07
55733;BME280;41637;52.364;9.910;2023-02-01T04:43:51;100508.56;;;4.86;83.01
55733;BME280;41637;52.364;9.910;2023-02-01T04:46:18;100506.06;;;4.86;83.12
55733;BME280;41637;52.364;9.910;2023-02-01T04:48:46;100491.80;;;4.87;82.84
55733;BME280;41637;52.364;9.910;2023-02-01T04:51:13;100483.49;;;4.88;82.68
55733;BME280;41637;52.364;9.910;2023-02-01T04:53:39;100483.56;;;4.89;82.25
55733;BME280;41637;52.364;9.910;2023-02-01T04:56:06;100480.87;;;4.92;81.98
55733;BME280;41637;52.364;9.910;2023-02-01T04:58:34;100474.98;;;4.93;82.63
55733;BME280;41637;52.364;9.910;2023-02-01T05:01:06;100480.94;;;4.91;83.57
55733;BME280;41637;52.364;9.910;2023-02-01T05:03:36;100483.09;;;4.87;84.85
55733;BME280;41637;52.364;9.910;2023-02-01T05:06:03;100492.16;;;4.72;86.13
55733;BME280;41637;52.364;9.910;2023-02-01T05:08:31;100492.20;;;4.52;87.93
55733;BME280;41637;52.364;9.910;2023-02-01T05:10:58;100481.41;;;4.36;89.17
55733;BME280;41637;52.364;9.910;2023-02-01T05:13:25;100484.69;;;4.25;90.57
55733;BME280;41637;52.364;9.910;2023-02-01T05:16:11;100484.13;;;4.14;91.72
55733;BME280;41637;52.364;9.910;2023-02-01T05:18:38;100490.73;;;4.06;92.99
55733;BME280;41637;52.364;9.910;2023-02-01T05:21:05;100481.09;;;4.01;93.54
55733;BME280;41637;52.364;9.910;2023-02-01T05:23:32;100478.62;;;3.97;94.14
55733;BME280;41637;52.364;9.910;2023-02-01T05:26:19;100477.11;;;3.91;95.14
55733;BME280;41637;52.364;9.910;2023-02-01T05:28:46;100463.89;;;3.86;95.79
55733;BME280;41637;52.364;9.910;2023-02-01T05:31:13;100474.61;;;3.81;96.43
55733;BME280;41637;52.364;9.910;2023-02-01T05:33:41;100481.34;;;3.79;96.93
55733;BME280;41637;52.364;9.910;2023-02-01T05:36:08;100485.52;;;3.77;97.75
55733;BME280;41637;52.364;9.910;2023-02-01T05:38:35;100481.12;;;3.75;97.84
55733;BME280;41637;52.364;9.910;2023-02-01T05:41:02;100483.60;;;3.75;98.21
55733;BME280;41637;52.364;9.910;2023-02-01T05:43:29;100476.31;;;3.74;98.14
55733;BME280;41637;52.364;9.910;2023-02-01T05:45:56;100469.19;;;3.76;97.75
55733;BME280;41637;52.364;9.910;2023-02-01T05:48:23;100459.27;;;3.77;97.60
55733;BME280;41637;52.364;9.910;2023-02-01T05:50:50;100455.95;;;3.77;97.42
55733;BME280;41637;52.364;9.910;2023-02-01T05:53:17;100459.36;;;3.78;97.36
55733;BME280;41637;52.364;9.910;2023-02-01T05:55:44;100453.01;;;3.79;97.45
55733;BME280;41637;52.364;9.910;2023-02-01T05:58:10;100449.34;;;3.82;97.09
55733;BME280;41637;52.364;9.910;2023-02-01T06:00:39;100450.96;;;3.86;96.71
55733;BME280;41637;52.364;9.910;2023-02-01T06:03:06;100441.95;;;3.89;96.43
55733;BME280;41637;52.364;9.910;2023-02-01T06:05:33;100430.75;;;3.95;95.54
55733;BME280;41637;52.364;9.910;2023-02-01T06:08:00;100429.42;;;3.99;95.20
55733;BME280;41637;52.364;9.910;2023-02-01T06:10:27;100439.38;;;4.06;94.71
55733;BME280;41637;52.364;9.910;2023-02-01T06:12:53;100430.45;;;4.10;94.67
55733;BME280;41637;52.364;9.910;2023-02-01T06:15:20;100431.10;;;4.12;94.06
55733;BME280;41637;52.364;9.910;2023-02-01T06:17:47;100428.55;;;4.15;93.47
55733;BME280;41637;52.364;9.910;2023-02-01T06:20:14;100432.62;;;4.19;93.30
55733;BME280;41637;52.364;9.910;2023-02-01T06:22:41;100419.60;;;4.21;93.14
55733;BME280;41637;52.364;9.910;2023-02-01T06:25:10;100421.90;;;4.25;92.82
55733;BME280;41637;52.364;9.910;2023-02-01T06:27:37;100419.00;;;4.28;92.82
55733;BME280;41637;52.364;9.910;2023-02-01T06:30:05;100415.11;;;4.30;92.54
55733;BME280;41637;52.364;9.910;2023-02-01T06:32:32;100416.77;;;4.31;92.68
55733;BME280;41637;52.364;9.910;2023-02-01T06:34:58;100416.73;;;4.33;92.81
55733;BME280;41637;52.364;9.910;2023-02-01T06:37:26;100423.04;;;4.33;92.82
55733;BME280;41637;52.364;9.910;2023-02-01T06:39:56;100423.02;;;4.33;92.99
55733;BME280;41637;52.364;9.910;2023-02-01T06:42:23;100428.03;;;4.34;92.80
55733;BME280;41637;52.364;9.910;2023-02-01T06:44:50;100439.56;;;4.33;92.90
55733;BME280;41637;52.364;9.910;2023-02-01T06:47:17;100434.02;;;4.32;93.14
55733;BME280;41637;52.364;9.910;2023-02-01T06:49:43;100452.86;;;4.31;93.42
55733;BME280;41637;52.364;9.910;2023-02-01T06:52:10;100454.77;;;4.29;93.19
55733;BME280;41637;52.364;9.910;2023-02-01T06:54:37;100443.55;;;4.29;92.95
55733;BME280;41637;52.364;9.910;2023-02-01T06:57:04;100439.39;;;4.30;93.39
55733;BME280;41637;52.364;9.910;2023-02-01T06:59:32;100457.45;;;4.28;93.71
55733;BME280;41637;52.364;9.910;2023-02-01T07:01:59;100454.64;;;4.25;94.35
55733;BME280;41637;52.364;9.910;2023-02-01T07:04:25;100455.98;;;4.19;95.16
55733;BME280;41637;52.364;9.910;2023-02-01T07:06:52;100459.63;;;4.16;95.61
55733;BME280;41637;52.364;9.910;2023-02-01T07:09:20;100452.35;;;4.15;95.39
55733;BME280;41637;52.364;9.910;2023-02-01T07:11:47;100474.38;;;4.16;94.99
55733;BME280;41637;52.364;9.910;2023-02-01T07:14:14;100455.84;;;4.17;95.18
55733;BME280;41637;52.364;9.910;2023-02-01T07:16:41;100473.25;;;4.18;95.01
55733;BME280;41637;52.364;9.910;2023-02-01T07:19:08;100477.02;;;4.21;94.65
55733;BME280;41637;52.364;9.910;2023-02-01T07:21:35;100461.95;;;4.23;94.35
55733;BME280;41637;52.364;9.910;2023-02-01T07:24:03;100466.46;;;4.25;94.22
55733;BME280;41637;52.364;9.910;2023-02-01T07:26:30;100466.71;;;4.28;94.02
55733;BME280;41637;52.364;9.910;2023-02-01T07:28:57;100469.95;;;4.30;94.06
55733;BME280;41637;52.364;9.910;2023-02-01T07:31:24;100469.27;;;4.31;93.98
55733;BME280;41637;52.364;9.910;2023-02-01T07:33:52;100472.92;;;4.31;94.15
55733;BME280;41637;52.364;9.910;2023-02-01T07:36:20;100468.77;;;4.33;94.13
55733;BME280;41637;52.364;9.910;2023-02-01T07:38:47;100476.88;;;4.36;93.93
55733;BME280;41637;52.364;9.910;2023-02-01T07:41:15;100472.50;;;4.38;93.66
55733;BME280;41637;52.364;9.910;2023-02-01T07:43:42;100472.89;;;4.43;93.15
55733;BME280;41637;52.364;9.910;2023-02-01T07:46:10;100482.20;;;4.49;92.79
55733;BME280;41637;52.364;9.910;2023-02-01T07:48:37;100471.06;;;4.54;92.73
55733;BME280;41637;52.364;9.910;2023-02-01T07:51:08;100472.42;;;4.58;92.31
55733;BME280;41637;52.364;9.910;2023-02-01T07:53:36;100470.33;;;4.64;91.95
55733;BME280;41637;52.364;9.910;2023-02-01T07:56:03;100480.80;;;4.68;91.53
55733;BME280;41637;52.364;9.910;2023-02-01T07:58:30;100469.15;;;4.70;91.06
55733;BME280;41637;52.364;9.910;2023-02-01T08:00:57;100469.73;;;4.76;90.58
55733;BME280;41637;52.364;9.910;2023-02-01T08:03:43;100474.30;;;4.79;90.18
55733;BME280;41637;52.364;9.910;2023-02-01T08:06:10;100462.41;;;4.83;89.91
55733;BME280;41637;52.364;9.910;2023-02-01T08:08:37;100473.46;;;4.84;89.33
55733;BME280;41637;52.364;9.910;2023-02-01T08:11:05;100457.34;;;4.86;89.32
55733;BME280;41637;52.364;9.910;2023-02-01T08:13:34;100461.11;;;4.87;89.04
55733;BME280;41637;52.364;9.910;2023-02-01T08:16:03;100455.43;;;4.86;88.63
55733;BME280;41637;52.364;9.910;2023-02-01T08:18:31;100477.96;;;4.85;88.64
55733;BME280;41637;52.364;9.910;2023-02-01T08:21:03;100474.91;;;4.86;88.77
55733;BME280;41637;52.364;9.910;2023-02-01T08:23:31;100501.34;;;4.86;88.48
55733;BME280;41637;52.364;9.910;2023-02-01T08:26:12;100499.77;;;4.90;88.64
55733;BME280;41637;52.364;9.910;2023-02-01T08:28:44;100502.65;;;4.93;88.72
55733;BME280;41637;52.364;9.910;2023-02-01T08:31:13;100519.59;;;4.99;88.65
55733;BME280;41637;52.364;9.910;2023-02-01T08:33:47;100529.33;;;5.02;88.95
55733;BME280;41637;52.364;9.910;2023-02-01T08:36:15;100526.86;;;5.02;89.57
55733;BME280;41637;52.364;9.910;2023-02-01T08:38:42;100525.31;;;5.02;89.24
55733;BME280;41637;52.364;9.910;2023-02-01T08:41:14;100527.23;;;5.04;88.91
55733;BME280;41637;52.364;9.910;2023-02-01T08:43:42;100533.64;;;5.03;88.84
55733;BME280;41637;52.364;9.910;2023-02-01T08:46:10;100510.14;;;5.05;88.98
55733;BME280;41637;52.364;9.910;2023-02-01T08:48:37;100503.36;;;5.06;88.99
55733;BME280;41637;52.364;9.910;2023-02-01T08:51:06;100502.13;;;5.08;88.61
55733;BME280;41637;52.364;9.910;2023-02-01T08:53:33;100503.11;;;5.12;88.16
55733;BME280;41637;52.364;9.910;2023-02-01T08:56:00;100519.83;;;5.15;87.66
55733;BME280;41637;52.364;9.910;2023-02-01T08:58:27;100508.26;;;5.21;87.48
55733;BME280;41637;52.364;9.910;2023-02-01T09:00:54;100502.17;;;5.32;86.96
55733;BME280;41637;52.364;9.910;2023-02-01T09:03:21;100486.52;;;5.43;86.27
55733;BME280;41637;52.364;9.910;2023-02-01T09:05:48;100491.70;;;5.50;85.57
55733;BME280;41637;52.364;9.910;2023-02-01T09:08:15;100501.23;;;5.55;84.72
55733;BME280;41637;52.364;9.910;2023-02-01T09:10:42;100523.29;;;5.60;83.92
55733;BME280;41637;52.364;9.910;2023-02-01T09:13:09;100511.41;;;5.65;83.65
55733;BME280;41637;52.364;9.910;2023-02-01T09:15:37;100522.29;;;5.71;83.02
55733;BME280;41637;52.364;9.910;2023-02-01T09:18:04;100516.70;;;5.80;82.63
55733;BME280;41637;52.364;9.910;2023-02-01T09:20:30;100511.84;;;5.86;81.77
55733;BME280;41637;52.364;9.910;2023-02-01T09:22:57;100506.17;;;5.94;81.46
55733;BME280;41637;52.364;9.910;2023-02-01T09:25:24;100512.05;;;6.04;81.46
55733;BME280;41637;52.364;9.910;2023-02-01T09:27:52;100529.49;;;6.07;80.17
55733;BME280;41637;52.364;9.910;2023-02-01T09:30:18;100522.33;;;6.12;80.39
55733;BME280;41637;52.364;9.910;2023-02-01T09:32:45;100519.20;;;6.16;79.90
55733;BME280;41637;52.364;9.910;2023-02-01T09:35:12;100514.17;;;6.21;79.79
55733;BME280;41637;52.364;9.910;2023-02-01T09:37:39;100511.53;;;6.21;80.03
55733;BME280;41637;52.364;9.910;2023-02-01T09:40:10;100516.38;;;6.27;79.94
55733;BME280;41637;52.364;9.910;2023-02-01T09:42:44;100524.18;;;6.31;79.34
55733;BME280;41637;52.364;9.910;2023-02-01T09:48:11;100521.48;;;6.34;78.60
55733;BME280;41637;52.364;9.910;2023-02-01T09:50:44;100536.09;;;6.35;78.33
55733;BME280;41637;52.364;9.910;2023-02-01T09:53:28;100531.97;;;6.41;78.64
55733;BME280;41637;52.364;9.910;2023-02-01T09:56:04;100531.13;;;6.43;77.91
55733;BME280;41637;52.364;9.910;2023-02-01T09:58:38;100522.30;;;6.41;77.92
55733;BME280;41637;52.364;9.910;2023-02-01T10:01:18;100522.34;;;6.44;78.11
55733;BME280;41637;52.364;9.910;2023-02-01T10:03:46;100528.21;;;6.46;77.78
55733;BME280;41637;52.364;9.910;2023-02-01T10:09:40;100524.66;;;6.51;77.56
55733;BME280;41637;52.364;9.910;2023-02-01T10:15:15;100537.96;;;6.59;77.44
55733;BME280;41637;52.364;9.910;2023-02-01T10:21:01;100516.05;;;6.62;76.98
55733;BME280;41637;52.364;9.910;2023-02-01T10:26:40;100524.96;;;6.68;77.05
55733;BME280;41637;52.364;9.910;2023-02-01T10:29:16;100521.52;;;6.74;76.67
55733;BME280;41637;52.364;9.910;2023-02-01T10:31:45;100513.98;;;6.79;76.63
55733;BME280;41637;52.364;9.910;2023-02-01T10:34:21;100525.76;;;6.77;76.34
55733;BME280;41637;52.364;9.910;2023-02-01T10:36:57;100505.92;;;6.82;76.74
55733;BME280;41637;52.364;9.910;2023-02-01T10:39:26;100508.36;;;6.88;76.66
55733;BME280;41637;52.364;9.910;2023-02-01T10:41:55;100513.70;;;6.89;75.63
55733;BME280;41637;52.364;9.910;2023-02-01T10:44:26;100503.45;;;6.89;75.78
55733;BME280;41637;52.364;9.910;2023-02-01T10:46:54;100508.25;;;6.87;75.81
55733;BME280;41637;52.364;9.910;2023-02-01T10:49:33;100512.14;;;6.85;75.21
55733;BME280;41637;52.364;9.910;2023-02-01T10:52:10;100500.80;;;6.86;75.11
55733;BME280;41637;52.364;9.910;2023-02-01T10:54:39;100505.23;;;6.82;75.36
55733;BME280;41637;52.364;9.910;2023-02-01T10:57:19;100510.29;;;6.81;74.95
55733;BME280;41637;52.364;9.910;2023-02-01T10:59:47;100513.70;;;6.79;75.03
55733;BME280;41637;52.364;9.910;2023-02-01T11:02:34;100502.83;;;6.78;75.33
55733;BME280;41637;52.364;9.910;2023-02-01T11:05:03;100511.51;;;6.70;75.04
55733;BME280;41637;52.364;9.910;2023-02-01T11:07:32;100510.06;;;6.71;75.16
55733;BME280;41637;52.364;9.910;2023-02-01T11:09:59;100492.15;;;6.67;74.98
55733;BME280;41637;52.364;9.910;2023-02-01T11:12:37;100476.02;;;6.67;75.16
55733;BME280;41637;52.364;9.910;2023-02-01T11:17:48;100468.39;;;6.69;75.60
55733;BME280;41637;52.364;9.910;2023-02-01T11:20:21;100472.98;;;6.69;75.37
55733;BME280;41637;52.364;9.910;2023-02-01T11:22:55;100461.52;;;6.70;75.24
55733;BME280;41637;52.364;9.910;2023-02-01T11:25:23;100465.55;;;6.71;75.18
55733;BME280;41637;52.364;9.910;2023-02-01T11:27:54;100462.59;;;6.71;74.87
55733;BME280;41637;52.364;9.910;2023-02-01T11:30:33;100471.15;;;6.68;74.42
55733;BME280;41637;52.364;9.910;2023-02-01T11:33:02;100451.16;;;6.68;74.48
55733;BME280;41637;52.364;9.910;2023-02-01T11:35:32;100447.69;;;6.66;74.81
55733;BME280;41637;52.364;9.910;2023-02-01T11:38:00;100446.69;;;6.67;74.68
55733;BME280;41637;52.364;9.910;2023-02-01T11:40:35;100451.34;;;6.66;74.11
55733;BME280;41637;52.364;9.910;2023-02-01T11:43:17;100437.38;;;6.72;74.17
55733;BME280;41637;52.364;9.910;2023-02-01T11:45:55;100433.30;;;6.81;73.41
55733;BME280;41637;52.364;9.910;2023-02-01T11:48:25;100410.82;;;6.96;72.96
55733;BME280;41637;52.364;9.910;2023-02-01T11:59:19;100380.39;;;7.47;72.16
55733;BME280;41637;52.364;9.910;2023-02-01T12:02:03;100382.05;;;7.45;71.44
55733;BME280;41637;52.364;9.910;2023-02-01T12:07:51;100353.08;;;7.56;71.60
55733;BME280;41637;52.364;9.910;2023-02-01T12:10:35;100349.30;;;7.43;71.62
55733;BME280;41637;52.364;9.910;2023-02-01T12:16:00;100331.77;;;7.65;71.06
55733;BME280;41637;52.364;9.910;2023-02-01T12:21:43;100330.13;;;7.99;68.85
55733;BME280;41637;52.364;9.910;2023-02-01T12:27:17;100323.08;;;7.68;70.46
55733;BME280;41637;52.364;9.910;2023-02-01T12:35:49;100290.41;;;7.06;74.31
55733;BME280;41637;52.364;9.910;2023-02-01T12:44:07;100279.86;;;6.30;78.92
55733;BME280;41637;52.364;9.910;2023-02-01T12:46:59;100275.27;;;6.18;80.85
55733;BME280;41637;52.364;9.910;2023-02-01T12:52:21;100282.10;;;5.78;84.50
55733;BME280;41637;52.364;9.910;2023-02-01T12:54:59;100278.91;;;5.60;86.12
55733;BME280;41637;52.364;9.910;2023-02-01T12:57:40;100269.84;;;5.48;87.24
55733;BME280;41637;52.364;9.910;2023-02-01T13:00:35;100265.69;;;5.42;88.64
55733;BME280;41637;52.364;9.910;2023-02-01T13:06:16;100260.30;;;5.29;89.15
55733;BME280;41637;52.364;9.910;2023-02-01T13:11:55;100254.48;;;5.17;90.09
55733;BME280;41637;52.364;9.910;2023-02-01T13:16:53;100263.89;;;5.06;91.62
55733;BME280;41637;52.364;9.910;2023-02-01T13:19:49;100257.33;;;4.91;92.94
55733;BME280;41637;52.364;9.910;2023-02-01T13:22:21;100265.33;;;4.77;93.52
55733;BME280;41637;52.364;9.910;2023-02-01T13:24:58;100268.45;;;4.68;93.89
55733;BME280;41637;52.364;9.910;2023-02-01T13:27:27;100279.35;;;4.57;95.79
55733;BME280;41637;52.364;9.910;2023-02-01T13:29:59;100277.63;;;4.38;97.26
55733;BME280;41637;52.364;9.910;2023-02-01T13:32:41;100295.89;;;4.23;99.09
55733;BME280;41637;52.364;9.910;2023-02-01T13:38:38;100366.23;;;4.03;100.00
55733;BME280;41637;52.364;9.910;2023-02-01T13:41:29;100394.77;;;3.97;100.00
55733;BME280;41637;52.364;9.910;2023-02-01T13:44:04;100370.81;;;3.78;100.00
55733;BME280;41637;52.364;9.910;2023-02-01T13:46:45;100337.70;;;3.62;100.00
55733;BME280;41637;52.364;9.910;2023-02-01T13:49:21;100358.23;;;3.37;100.00
55733;BME280;41637;52.364;9.910;2023-02-01T13:51:51;100372.66;;;3.00;100.00
55733;BME280;41637;52.364;9.910;2023-02-01T13:54:29;100390.52;;;2.63;100.00
55733;BME280;41637;52.364;9.910;2023-02-01T13:57:02;100393.40;;;2.39;100.00
55733;BME280;41637;52.364;9.910;2023-02-01T14:00:04;100407.46;;;2.24;100.00
55733;BME280;41637;52.364;9.910;2023-02-01T14:05:11;100367.51;;;2.09;100.00
55733;BME280;41637;52.364;9.910;2023-02-01T14:13:33;100355.61;;;2.08;100.00
55733;BME280;41637;52.364;9.910;2023-02-01T14:21:33;100395.55;;;2.03;100.00
55733;BME280;41637;52.364;9.910;2023-02-01T14:24:21;100388.77;;;2.01;100.00
55733;BME280;41637;52.364;9.910;2023-02-01T14:26:51;100404.31;;;1.96;100.00
55733;BME280;41637;52.364;9.910;2023-02-01T14:29:29;100393.45;;;1.97;100.00
55733;BME280;41637;52.364;9.910;2023-02-01T14:42:32;100424.01;;;2.03;100.00
55733;BME280;41637;52.364;9.910;2023-02-01T14:47:46;100435.84;;;2.10;100.00
55733;BME280;41637;52.364;9.910;2023-02-01T14:50:23;100434.88;;;2.17;100.00
55733;BME280;41637;52.364;9.910;2023-02-01T14:58:42;100439.70;;;2.41;100.00
55733;BME280;41637;52.364;9.910;2023-02-01T15:01:16;100436.48;;;2.46;100.00
55733;BME280;41637;52.364;9.910;2023-02-01T15:03:49;100440.50;;;2.48;100.00
55733;BME280;41637;52.364;9.910;2023-02-01T15:06:38;100438.27;;;2.52;100.00
55733;BME280;41637;52.364;9.910;2023-02-01T15:09:18;100445.37;;;2.49;100.00
55733;BME280;41637;52.364;9.910;2023-02-01T15:12:02;100445.39;;;2.44;100.00
55733;BME280;41637;52.364;9.910;2023-02-01T15:14:33;100443.07;;;2.47;100.00
55733;BME280;41637;52.364;9.910;2023-02-01T15:17:01;100450.07;;;2.46;100.00
55733;BME280;41637;52.364;9.910;2023-02-01T15:19:29;100437.00;;;2.51;100.00
55733;BME280;41637;52.364;9.910;2023-02-01T15:21:58;100438.70;;;2.51;100.00
55733;BME280;41637;52.364;9.910;2023-02-01T15:24:29;100447.05;;;2.49;100.00